Time;durP1;ratioP1;P1;durP2;ratioP2;P2;SDS_P1;SDS_P2;PMS_P1;PMS_P2;Temp;Humidity;BMP_temperature;BMP_pressure;BME280_temperature;BME280_humidity;BME280_pressure;Samples;Min_cycle;Max_cycle;Signal;HPM_P1;HPM_P2
2023/06/30 00:01:48;;;;;;;10.60;5.25;;;17.90;99.90;;;16.53;100.00;97319.72;5041095;28;20049;-73
2023/06/30 00:04:18;;;;;;;10.80;6.22;;;17.90;99.90;;;16.50;100.00;97325.19;5040031;28;20076;-73
2023/06/30 00:06:49;;;;;;;13.20;7.25;;;17.80;99.90;;;16.83;100.00;97329.84;5044649;28;20053;-73
2023/06/30 00:09:19;;;;;;;9.80;5.57;;;17.70;99.90;;;16.64;100.00;97326.81;5043974;28;20139;-73
2023/06/30 00:11:50;;;;;;;9.73;6.18;;;17.70;99.90;;;16.48;100.00;97325.28;5023354;28;20098;-73
2023/06/30 00:14:17;;;;;;;11.07;7.03;;;17.70;99.90;;;16.68;100.00;97317.78;5042936;28;20048;-73
2023/06/30 00:16:45;;;;;;;10.02;6.32;;;17.60;99.90;;;16.63;100.00;97306.81;5041475;28;20063;-74
2023/06/30 00:19:13;;;;;;;10.77;6.22;;;17.60;99.90;;;16.54;100.00;97310.91;5040959;28;20141;-73
2023/06/30 00:21:41;;;;;;;9.48;5.70;;;17.60;99.90;;;16.55;100.00;97322.22;5042138;28;20588;-74
2023/06/30 00:24:10;;;;;;;11.18;5.85;;;17.60;99.90;;;16.51;100.00;97325.06;5043565;28;20057;-74
2023/06/30 00:26:38;;;;;;;10.00;6.28;;;17.60;99.90;;;16.74;100.00;97320.00;5026063;28;20041;-73
2023/06/30 00:29:06;;;;;;;12.43;6.65;;;17.60;99.90;;;16.58;100.00;97317.63;5044235;28;20048;-73
2023/06/30 00:31:33;;;;;;;11.20;6.55;;;17.70;99.90;;;16.54;100.00;97321.41;5040586;28;20497;-74
2023/06/30 00:34:01;;;;;;;9.32;6.22;;;17.60;99.90;;;16.41;100.00;97323.22;5056247;28;20569;-73
2023/06/30 00:36:29;;;;;;;14.50;6.80;;;17.50;99.90;;;16.35;100.00;97337.56;5044798;28;20136;-73
2023/06/30 00:38:59;;;;;;;8.45;5.75;;;17.50;99.90;;;16.29;100.00;97336.22;5040763;28;20141;-73
2023/06/30 00:41:26;;;;;;;9.80;6.57;;;17.40;99.90;;;16.33;100.00;97339.47;5041412;28;20053;-73
2023/06/30 00:43:53;;;;;;;12.43;6.07;;;17.40;99.90;;;16.66;100.00;97345.88;5045648;28;20057;-73
2023/06/30 00:46:20;;;;;;;10.32;6.05;;;17.40;99.90;;;16.68;100.00;97331.72;5042503;28;20540;-74
2023/06/30 00:48:48;;;;;;;10.55;6.43;;;17.50;99.90;;;16.64;100.00;97325.03;5025025;28;20060;-74
2023/06/30 00:51:15;;;;;;;10.73;6.20;;;17.50;99.90;;;16.76;100.00;97332.97;5042602;28;20580;-74
2023/06/30 00:53:42;;;;;;;10.32;6.80;;;17.60;99.90;;;16.97;100.00;97326.22;5045226;28;20041;-74
2023/06/30 00:56:09;;;;;;;8.90;6.32;;;17.70;99.90;;;16.66;100.00;97328.38;5042413;28;20086;-74
2023/06/30 00:58:38;;;;;;;9.02;6.05;;;17.70;99.90;;;16.81;100.00;97331.72;5028986;28;20048;-73
2023/06/30 01:01:26;;;;;;;12.43;6.72;;;17.80;99.90;;;16.60;100.00;97322.72;5024140;28;20098;-74
2023/06/30 01:04:28;;;;;;;13.43;7.15;;;17.80;99.90;;;16.47;100.00;97315.75;5042204;28;20048;-75
2023/06/30 01:07:19;;;;;;;11.07;7.20;;;17.60;99.90;;;16.78;100.00;97320.59;5023704;28;20044;-73
2023/06/30 01:09:58;;;;;;;13.40;6.68;;;17.60;99.90;;;16.76;100.00;97323.31;5041064;28;20083;-74
2023/06/30 01:12:26;;;;;;;12.35;6.63;;;17.60;99.90;;;16.98;100.00;97311.31;5044129;28;20055;-74
2023/06/30 01:14:55;;;;;;;11.63;7.18;;;17.70;99.90;;;16.99;100.00;97313.84;5042994;28;20049;-73
2023/06/30 01:17:24;;;;;;;12.77;7.18;;;17.80;99.90;;;17.12;100.00;97309.34;5041383;28;20060;-73
2023/06/30 01:19:54;;;;;;;10.30;7.07;;;17.90;99.90;;;17.33;100.00;97304.31;5043422;28;20567;-74
2023/06/30 01:22:39;;;;;;;9.30;7.10;;;18.00;99.90;;;17.41;100.00;97302.91;5042891;28;20061;-73
2023/06/30 01:25:12;;;;;;;10.13;6.43;;;18.10;99.90;;;17.27;100.00;97299.53;5040362;28;20127;-73
2023/06/30 01:27:40;;;;;;;13.38;6.22;;;18.10;99.90;;;17.29;100.00;97300.25;5043165;28;20064;-74
2023/06/30 01:30:09;;;;;;;10.73;6.80;;;18.10;99.90;;;17.49;100.00;97298.78;5039643;28;20053;-73
2023/06/30 01:32:37;;;;;;;10.07;7.47;;;18.20;99.90;;;17.53;100.00;97291.50;5042880;28;20136;-73
2023/06/30 01:35:05;;;;;;;10.07;7.00;;;18.30;99.90;;;17.40;100.00;97291.56;5041397;28;20144;-73
2023/06/30 01:37:35;;;;;;;10.75;6.72;;;18.30;99.90;;;17.19;100.00;97294.00;5042774;28;20623;-73
2023/06/30 01:40:06;;;;;;;12.35;7.60;;;18.20;99.90;;;17.18;100.00;97302.00;5041097;28;20049;-73
2023/06/30 01:42:35;;;;;;;10.70;6.45;;;18.20;99.90;;;17.11;100.00;97299.00;5046670;28;20077;-73
2023/06/30 01:45:04;;;;;;;9.93;7.32;;;18.20;99.90;;;17.29;100.00;97302.88;5044394;28;20065;-73
2023/06/30 01:47:32;;;;;;;11.52;6.88;;;18.10;99.90;;;17.10;100.00;97305.16;5028350;28;20055;-75
2023/06/30 01:49:59;;;;;;;13.45;7.40;;;18.10;99.90;;;17.00;100.00;97306.81;5046281;28;20501;-73
2023/06/30 01:52:26;;;;;;;14.05;7.80;;;18.00;99.90;;;17.05;100.00;97313.38;5047084;28;20219;-73
2023/06/30 01:54:54;;;;;;;17.30;6.68;;;18.00;99.90;;;16.99;100.00;97310.34;5045110;28;20536;-75
2023/06/30 01:57:20;;;;;;;11.82;7.65;;;18.00;99.90;;;17.19;100.00;97311.53;5047141;28;20263;-73
2023/06/30 01:59:48;;;;;;;12.63;7.60;;;18.00;99.90;;;17.45;100.00;97313.06;5047234;28;20114;-73
2023/06/30 02:02:15;;;;;;;13.43;8.13;;;18.10;99.90;;;17.50;100.00;97308.31;5047632;28;20052;-73
2023/06/30 02:04:42;;;;;;;12.10;6.28;;;18.20;99.90;;;17.43;100.00;97317.59;5044972;28;20111;-73
2023/06/30 02:07:10;;;;;;;14.40;8.20;;;18.20;99.90;;;17.54;100.00;97306.28;5047610;28;20571;-73
2023/06/30 02:09:37;;;;;;;11.00;7.47;;;18.30;99.90;;;17.66;100.00;97302.75;5042638;28;20049;-73
2023/06/30 02:12:14;;;;;;;12.68;7.07;;;18.30;99.90;;;17.91;100.00;97314.03;5029435;28;20466;-74
2023/06/30 02:14:41;;;;;;;18.35;9.68;;;18.40;99.90;;;17.70;100.00;97329.59;5044427;28;20457;-73
2023/06/30 02:17:10;;;;;;;22.63;9.82;;;18.40;99.90;;;17.23;100.00;97353.16;5046441;28;21034;-74
2023/06/30 02:19:37;;;;;;;19.55;10.93;;;18.10;99.90;;;17.10;100.00;97365.47;5027409;28;20110;-74
2023/06/30 02:22:05;;;;;;;26.13;11.85;;;17.90;99.90;;;16.95;100.00;97398.91;5044954;28;20488;-74
2023/06/30 02:24:32;;;;;;;22.75;9.40;;;17.60;99.90;;;17.00;100.00;97430.03;5046474;28;20563;-74
2023/06/30 02:26:59;;;;;;;22.08;10.90;;;17.60;99.90;;;16.99;100.00;97446.69;5044345;28;20791;-73
2023/06/30 02:29:26;;;;;;;17.42;8.63;;;17.50;99.90;;;16.72;100.00;97460.78;5041460;28;20119;-74
2023/06/30 02:31:54;;;;;;;19.52;11.85;;;17.40;99.90;;;16.84;100.00;97461.75;5043974;28;20045;-74
2023/06/30 02:34:21;;;;;;;20.55;9.70;;;17.40;99.90;;;16.91;100.00;97466.44;5045660;28;20501;-74
2023/06/30 02:36:48;;;;;;;24.30;10.18;;;17.30;99.90;;;16.89;100.00;97463.06;5042199;28;20131;-74
2023/06/30 02:39:16;;;;;;;19.40;10.48;;;17.30;99.90;;;16.89;100.00;97475.34;5044719;28;20068;-74
2023/06/30 02:41:43;;;;;;;19.30;7.93;;;17.30;99.90;;;16.94;100.00;97475.88;5057125;28;20126;-74
2023/06/30 02:44:12;;;;;;;19.52;10.45;;;17.30;99.90;;;16.97;100.00;97480.06;5043976;28;20059;-75
2023/06/30 02:46:39;;;;;;;15.57;9.60;;;17.40;99.90;;;16.89;100.00;97483.22;5030065;28;20077;-75
2023/06/30 02:49:06;;;;;;;19.20;9.80;;;17.30;99.90;;;16.69;100.00;97485.44;5030673;28;20073;-74
2023/06/30 02:51:34;;;;;;;22.45;9.10;;;17.20;99.90;;;16.62;100.00;97496.41;5047006;28;20045;-74
2023/06/30 02:54:01;;;;;;;15.55;9.30;;;17.00;99.90;;;16.66;100.00;97503.97;5026861;28;20332;-75
2023/06/30 02:56:28;;;;;;;17.35;11.15;;;17.10;99.90;;;16.60;100.00;97509.63;5042601;28;20252;-74
2023/06/30 02:58:55;;;;;;;15.93;9.75;;;17.10;99.90;;;16.63;100.00;97509.41;5042808;28;20135;-74
2023/06/30 03:01:22;;;;;;;19.65;10.48;;;17.00;99.90;;;16.50;100.00;97509.41;5043801;28;20136;-74
2023/06/30 03:03:50;;;;;;;16.33;9.85;;;17.00;99.90;;;16.60;100.00;97514.03;5045210;28;20052;-74
2023/06/30 03:06:17;;;;;;;13.23;8.07;;;17.00;99.90;;;16.62;100.00;97507.72;5043353;28;20044;-75
2023/06/30 03:08:44;;;;;;;20.45;9.40;;;17.00;99.90;;;16.68;100.00;97509.09;5045055;28;20128;-74
2023/06/30 03:11:11;;;;;;;15.88;9.75;;;17.10;99.90;;;16.60;100.00;97506.16;5044831;28;20045;-75
2023/06/30 03:13:39;;;;;;;16.10;10.18;;;17.10;99.90;;;16.51;100.00;97510.25;5044441;28;20537;-77
2023/06/30 03:16:07;;;;;;;17.35;10.45;;;17.10;99.90;;;16.44;100.00;97508.97;5039543;28;20049;-74
2023/06/30 03:18:34;;;;;;;14.23;9.55;;;17.10;99.90;;;16.43;100.00;97505.53;5042639;28;20433;-74
2023/06/30 03:21:02;;;;;;;22.13;10.00;;;17.10;99.90;;;16.35;100.00;97499.94;5042687;28;20052;-75
2023/06/30 03:23:29;;;;;;;16.58;10.60;;;17.10;99.90;;;16.13;100.00;97497.13;5042123;28;20053;-74
2023/06/30 03:25:59;;;;;;;16.25;11.05;;;17.10;99.90;;;16.08;100.00;97495.63;5045791;28;20045;-75
2023/06/30 03:28:26;;;;;;;21.33;10.05;;;17.00;99.90;;;16.19;100.00;97502.75;5043875;28;20133;-74
2023/06/30 03:30:53;;;;;;;18.05;9.45;;;16.90;99.90;;;16.19;100.00;97497.50;5040728;28;20037;-74
2023/06/30 03:33:21;;;;;;;16.67;8.32;;;16.90;99.90;;;16.18;100.00;97497.63;5039378;28;20659;-73
2023/06/30 03:35:50;;;;;;;22.15;13.38;;;16.90;99.90;;;15.97;100.00;97492.88;5042500;28;20084;-77
2023/06/30 03:38:17;;;;;;;18.75;10.98;;;16.80;99.90;;;15.93;100.00;97501.88;5039508;28;20484;-73
2023/06/30 03:40:44;;;;;;;19.08;10.50;;;16.80;99.90;;;16.00;100.00;97486.59;5040479;28;20080;-74
2023/06/30 03:43:11;;;;;;;21.92;10.85;;;16.70;99.90;;;15.96;100.00;97479.88;5042023;28;20048;-76
2023/06/30 03:45:39;;;;;;;16.65;8.60;;;16.70;99.90;;;15.85;100.00;97480.59;5039755;28;20045;-76
2023/06/30 03:48:06;;;;;;;15.85;10.88;;;16.70;99.90;;;15.95;100.00;97475.59;5042477;28;20311;-75
2023/06/30 03:50:33;;;;;;;16.67;8.57;;;16.70;99.90;;;16.02;100.00;97476.88;5038507;28;20045;-75
2023/06/30 03:53:00;;;;;;;16.00;9.90;;;16.60;99.90;;;16.06;100.00;97484.41;5038860;28;20094;-76
2023/06/30 03:55:27;;;;;;;18.27;10.77;;;16.60;99.90;;;16.06;100.00;97494.06;5038085;28;20721;-75
2023/06/30 03:57:54;;;;;;;19.58;10.98;;;16.60;99.90;;;16.08;100.00;97497.41;5042231;28;20552;-76
2023/06/30 04:00:21;;;;;;;20.35;11.30;;;16.70;99.90;;;16.19;100.00;97499.31;5039704;28;20201;-76
2023/06/30 04:02:48;;;;;;;17.10;10.15;;;16.70;99.90;;;16.23;100.00;97500.78;5040166;28;20421;-75
2023/06/30 04:05:16;;;;;;;16.02;8.52;;;16.70;99.90;;;16.28;100.00;97503.94;5040024;28;20060;-75
2023/06/30 04:07:43;;;;;;;18.40;10.25;;;16.80;99.90;;;16.18;100.00;97497.63;5043070;28;20088;-75
2023/06/30 04:10:10;;;;;;;15.82;10.60;;;16.80;99.90;;;16.24;100.00;97502.47;5040609;28;20537;-75
2023/06/30 04:12:37;;;;;;;14.82;9.68;;;16.80;99.90;;;16.30;100.00;97496.81;5041719;28;20048;-75
2023/06/30 04:15:07;;;;;;;16.08;9.35;;;16.80;99.90;;;16.25;100.00;97499.75;5041258;28;20560;-76
2023/06/30 04:17:35;;;;;;;17.23;8.65;;;16.80;99.90;;;16.24;100.00;97498.06;5039089;28;20211;-75
2023/06/30 04:20:06;;;;;;;16.90;9.98;;;16.80;99.90;;;16.20;100.00;97499.22;5023105;28;20053;-76
2023/06/30 04:22:33;;;;;;;21.27;10.02;;;16.70;99.90;;;16.22;100.00;97505.19;5040210;28;20048;-75
2023/06/30 04:25:00;;;;;;;13.60;8.70;;;16.80;99.90;;;16.40;100.00;97499.63;5040211;28;20045;-74
2023/06/30 04:27:28;;;;;;;17.20;9.35;;;16.80;99.90;;;16.38;100.00;97496.31;5038932;28;20393;-73
2023/06/30 04:29:55;;;;;;;15.43;9.15;;;16.80;99.90;;;16.36;100.00;97487.72;5040879;28;20107;-74
2023/06/30 04:32:22;;;;;;;16.08;9.18;;;16.80;99.90;;;16.51;100.00;97482.28;5042482;28;20140;-74
2023/06/30 04:34:49;;;;;;;13.57;9.63;;;16.80;99.90;;;16.63;100.00;97487.63;5024002;28;20045;-74
2023/06/30 04:37:16;;;;;;;17.77;11.90;;;16.90;99.90;;;16.61;100.00;97487.72;5041495;28;20114;-74
2023/06/30 04:39:43;;;;;;;17.95;10.32;;;17.00;99.90;;;16.78;100.00;97488.34;5041308;28;20128;-74
2023/06/30 04:42:11;;;;;;;14.65;10.88;;;17.10;99.90;;;16.83;100.00;97483.63;5040284;28;20494;-74
2023/06/30 04:44:38;;;;;;;18.13;10.98;;;17.20;99.90;;;16.91;100.00;97486.56;5039375;28;20581;-74
2023/06/30 04:47:06;;;;;;;16.90;9.32;;;17.30;99.90;;;16.94;100.00;97483.72;5042290;28;20037;-74
2023/06/30 04:49:33;;;;;;;18.50;10.50;;;17.30;99.90;;;17.04;100.00;97490.03;5040212;28;20095;-74
2023/06/30 04:52:00;;;;;;;15.82;11.35;;;17.40;99.90;;;17.06;100.00;97489.91;5040441;28;20045;-73
2023/06/30 04:54:27;;;;;;;17.23;10.95;;;17.40;99.90;;;17.02;100.00;97489.28;5039018;28;20497;-74
2023/06/30 04:56:56;;;;;;;17.08;13.15;;;17.50;99.90;;;17.11;100.00;97493.88;5038371;28;20128;-74
2023/06/30 04:59:23;;;;;;;18.10;12.70;;;17.50;99.90;;;17.27;100.00;97495.44;5043141;28;20057;-75
2023/06/30 05:01:51;;;;;;;19.17;15.23;;;17.60;99.90;;;17.31;100.00;97486.38;5038620;28;20045;-74
2023/06/30 05:04:18;;;;;;;21.63;15.75;;;17.60;99.90;;;17.36;100.00;97486.91;5024455;28;20052;-74
2023/06/30 05:06:45;;;;;;;23.27;16.65;;;17.70;99.90;;;17.40;100.00;97493.59;5042411;28;20402;-73
2023/06/30 05:09:15;;;;;;;19.48;14.32;;;17.70;99.90;;;17.56;100.00;97480.19;5038672;28;20045;-74
2023/06/30 05:11:42;;;;;;;20.95;14.77;;;17.80;99.90;;;17.58;100.00;97480.09;5038641;28;20049;-73
2023/06/30 05:14:09;;;;;;;22.23;16.08;;;17.80;99.90;;;17.63;100.00;97481.47;5044614;28;20430;-74
2023/06/30 05:16:37;;;;;;;22.25;15.45;;;17.90;99.90;;;17.72;100.00;97483.41;5044739;28;20056;-73
2023/06/30 05:19:07;;;;;;;19.70;15.55;;;17.90;99.90;;;17.77;100.00;97478.66;5046765;28;20570;-73
2023/06/30 05:21:34;;;;;;;24.17;18.27;;;18.00;99.90;;;17.76;100.00;97470.88;5047054;28;20057;-72
2023/06/30 05:24:01;;;;;;;23.63;17.50;;;18.10;99.90;;;17.76;100.00;97473.50;5046774;28;20091;-73
2023/06/30 05:26:29;;;;;;;25.15;17.88;;;18.10;99.90;;;17.87;100.00;97475.38;5046251;28;20053;-72
2023/06/30 05:28:55;;;;;;;25.00;18.70;;;18.20;99.90;;;17.95;100.00;97476.50;5044588;28;20136;-75
2023/06/30 05:31:31;;;;;;;26.95;20.52;;;18.30;99.90;;;17.98;100.00;97471.00;5048099;28;20068;-73
2023/06/30 05:33:59;;;;;;;28.20;20.20;;;18.30;99.90;;;18.11;100.00;97464.81;5045732;28;20071;-73
2023/06/30 05:36:26;;;;;;;31.42;22.40;;;18.40;99.90;;;18.23;100.00;97466.53;5048713;28;20140;-73
2023/06/30 05:38:53;;;;;;;26.33;20.25;;;18.40;99.90;;;18.29;100.00;97468.72;5049590;28;20044;-73
2023/06/30 05:41:20;;;;;;;30.00;22.95;;;18.50;99.90;;;18.19;100.00;97459.84;5042693;28;20111;-72
2023/06/30 05:43:47;;;;;;;28.42;22.77;;;18.50;99.90;;;18.18;100.00;97458.19;5045691;28;20060;-73
2023/06/30 05:46:16;;;;;;;33.83;24.15;;;18.60;99.90;;;18.14;100.00;97456.72;5038471;28;20052;-72
2023/06/30 05:48:44;;;;;;;33.97;23.85;;;18.60;99.90;;;18.26;100.00;97457.59;5040865;28;20044;-73
2023/06/30 05:51:11;;;;;;;32.55;25.23;;;18.50;99.90;;;18.22;100.00;97453.50;5049641;28;20075;-74
2023/06/30 05:53:38;;;;;;;37.67;25.88;;;18.60;99.90;;;18.38;100.00;97452.25;5050271;28;20053;-73
2023/06/30 05:56:05;;;;;;;37.22;29.70;;;18.60;99.90;;;18.26;100.00;97450.53;5044415;28;20049;-73
2023/06/30 05:58:32;;;;;;;40.47;28.95;;;18.70;99.90;;;18.34;100.00;97448.19;5044036;28;20148;-73
2023/06/30 06:00:59;;;;;;;52.15;32.10;;;18.70;99.90;;;18.51;100.00;97440.78;5047173;28;20215;-73
2023/06/30 06:03:30;;;;;;;46.50;33.10;;;18.70;99.90;;;18.48;100.00;97438.41;5041512;28;20454;-73
2023/06/30 06:05:57;;;;;;;42.88;30.48;;;18.80;99.90;;;18.59;100.00;97435.78;5046067;28;20068;-73
2023/06/30 06:08:25;;;;;;;45.00;31.48;;;18.90;99.90;;;18.79;100.00;97434.25;5042100;28;20053;-73
2023/06/30 06:10:52;;;;;;;45.72;32.83;;;18.90;99.90;;;18.53;100.00;97423.94;5028303;28;20855;-73
2023/06/30 06:13:37;;;;;;;44.20;32.78;;;19.00;99.90;;;18.75;100.00;97423.13;5046222;28;20136;-74
2023/06/30 06:16:06;;;;;;;45.15;32.08;;;19.10;99.90;;;18.98;100.00;97418.69;5043666;28;20060;-73
2023/06/30 06:18:34;;;;;;;45.33;34.20;;;19.10;99.90;;;19.20;100.00;97407.31;5035374;28;20135;-72
2023/06/30 06:21:05;;;;;;;46.45;34.63;;;19.30;99.90;;;19.23;100.00;97409.69;5046285;28;20528;-73
2023/06/30 06:23:32;;;;;;;50.35;35.22;;;19.50;99.90;;;19.53;100.00;97413.41;5044111;28;20060;-73
2023/06/30 06:26:02;;;;;;;45.80;33.78;;;19.70;99.90;;;19.80;100.00;97410.34;5045489;28;20040;-73
2023/06/30 06:28:29;;;;;;;47.75;34.00;;;19.80;99.90;;;19.46;100.00;97403.53;5041670;28;20076;-73
2023/06/30 06:30:56;;;;;;;47.53;33.42;;;19.90;99.90;;;19.67;100.00;97398.28;5026616;28;20080;-73
2023/06/30 06:33:24;;;;;;;48.67;35.42;;;19.90;99.90;;;19.57;100.00;97393.78;5043701;28;20144;-73
2023/06/30 06:35:52;;;;;;;52.92;37.40;;;20.00;99.90;;;19.47;100.00;97400.75;5038910;28;20052;-73
2023/06/30 06:38:22;;;;;;;50.30;36.13;;;20.00;99.90;;;19.46;100.00;97398.25;5021143;28;20049;-74
2023/06/30 06:40:49;;;;;;;48.00;34.50;;;19.90;99.90;;;19.66;100.00;97394.84;5040392;28;20057;-74
2023/06/30 06:43:16;;;;;;;51.38;37.47;;;20.00;99.90;;;19.84;100.00;97393.34;5037472;28;21565;-74
2023/06/30 06:45:45;;;;;;;48.10;35.30;;;20.10;99.90;;;19.77;100.00;97384.25;5039716;28;20081;-74
2023/06/30 06:48:27;;;;;;;43.05;32.72;;;20.10;99.90;;;19.71;100.00;97379.50;5043317;28;20110;-74
2023/06/30 06:51:03;;;;;;;48.50;34.73;;;20.20;99.90;;;19.43;100.00;97368.59;5041643;28;20428;-73
2023/06/30 06:53:35;;;;;;;48.35;34.90;;;20.20;99.90;;;19.50;100.00;97384.72;5045093;28;20457;-73
2023/06/30 06:56:03;;;;;;;;;;;20.10;99.90;;;19.76;100.00;97384.41;5041337;28;20049;-73
2023/06/30 06:58:35;;;;;;;46.67;31.02;;;20.00;99.90;;;19.42;100.00;97393.22;5043369;28;20019;-73
2023/06/30 07:01:02;;;;;;;47.80;31.63;;;20.00;99.90;;;19.55;100.00;97394.88;5023822;28;20049;-73
2023/06/30 07:03:29;;;;;;;39.97;27.48;;;20.00;99.90;;;19.31;100.00;97398.53;5040592;28;20053;-74
2023/06/30 07:05:58;;;;;;;35.17;25.45;;;20.00;99.90;;;19.46;100.00;97396.47;5061868;28;20091;-74
2023/06/30 07:08:26;;;;;;;35.95;24.65;;;19.80;99.90;;;19.14;100.00;97399.91;5038910;28;20054;-73
2023/06/30 07:10:53;;;;;;;31.52;22.30;;;19.80;99.90;;;19.04;100.00;97390.22;5036867;28;20110;-74
2023/06/30 07:13:22;;;;;;;27.83;19.55;;;19.80;99.90;;;19.30;100.00;97382.88;5040177;28;20220;-74
2023/06/30 07:15:50;;;;;;;28.00;19.55;;;19.70;99.90;;;19.40;100.00;97379.34;5045697;28;20064;-74
2023/06/30 07:18:18;;;;;;;25.23;17.83;;;19.70;99.90;;;19.27;100.00;97376.03;5044048;28;20463;-73
2023/06/30 07:20:52;;;;;;;22.80;16.95;;;19.80;99.90;;;19.55;100.00;97377.28;5039991;28;20060;-74
2023/06/30 07:23:20;;;;;;;23.83;14.88;;;19.90;99.90;;;19.32;100.00;97376.53;5044742;28;20081;-74
2023/06/30 07:25:50;;;;;;;19.05;13.65;;;19.80;99.90;;;19.27;100.00;97377.84;5039562;28;20405;-73
2023/06/30 07:28:18;;;;;;;21.38;14.57;;;19.80;99.90;;;19.25;100.00;97378.00;5044183;28;20190;-74
2023/06/30 07:30:45;;;;;;;19.00;12.70;;;19.90;99.90;;;19.63;100.00;97368.72;5046401;28;20516;-74
2023/06/30 07:33:12;;;;;;;21.27;14.15;;;20.00;99.90;;;19.77;100.00;97364.97;5039119;28;20044;-74
2023/06/30 07:35:40;;;;;;;16.60;12.38;;;20.10;99.90;;;19.60;100.00;97369.00;5040692;28;20057;-74
2023/06/30 07:38:07;;;;;;;16.65;11.77;;;20.20;99.90;;;19.58;100.00;97369.13;5041904;28;20135;-74
2023/06/30 07:40:35;;;;;;;17.70;12.70;;;20.30;99.90;;;19.91;100.00;97367.31;5043167;28;20164;-75
2023/06/30 07:43:05;;;;;;;16.70;12.70;;;20.30;99.90;;;19.91;100.00;97369.09;5040345;28;20147;-74
2023/06/30 07:45:32;;;;;;;16.63;12.00;;;20.40;99.90;;;19.99;100.00;97361.41;5041858;28;20100;-74
2023/06/30 07:47:59;;;;;;;15.23;11.45;;;20.40;99.90;;;19.79;100.00;97369.16;5043668;28;20049;-73
2023/06/30 07:50:27;;;;;;;15.80;11.50;;;20.40;99.90;;;19.81;100.00;97380.41;5045557;28;20049;-73
2023/06/30 07:52:54;;;;;;;15.38;9.88;;;20.40;99.90;;;19.89;100.00;97373.66;5027592;28;20413;-74
2023/06/30 07:55:22;;;;;;;16.88;9.95;;;20.30;99.90;;;19.59;100.00;97376.06;5040503;28;20089;-73
2023/06/30 07:57:51;;;;;;;12.98;9.02;;;20.30;99.90;;;19.75;100.00;97375.66;5044505;28;20049;-73
2023/06/30 08:00:18;;;;;;;12.63;8.98;;;20.30;99.90;;;19.61;100.00;97381.19;5040845;28;20135;-73
2023/06/30 08:02:46;;;;;;;11.90;8.00;;;20.30;99.90;;;19.68;100.00;97366.56;5041437;28;20067;-73
2023/06/30 08:05:14;;;;;;;9.60;7.40;;;20.30;99.90;;;19.69;100.00;97365.63;5041776;28;20123;-74
2023/06/30 08:07:42;;;;;;;10.70;7.55;;;20.30;99.90;;;19.65;100.00;97361.53;5042236;28;20095;-73
2023/06/30 08:10:17;;;;;;;12.43;7.78;;;20.40;99.90;;;19.82;100.00;97365.47;5045959;28;20049;-74
2023/06/30 08:12:45;;;;;;;12.27;8.05;;;20.40;99.90;;;20.11;100.00;97359.53;5041621;28;20973;-73
2023/06/30 08:15:12;;;;;;;10.70;7.10;;;20.40;99.90;;;20.61;100.00;97357.81;5035725;28;20052;-73
2023/06/30 08:17:39;;;;;;;10.55;8.18;;;20.70;99.90;;;20.56;100.00;97354.75;5058864;28;20053;-74
2023/06/30 08:20:20;;;;;;;11.95;7.45;;;20.90;99.90;;;19.99;100.00;97361.41;5027738;28;20068;-74
2023/06/30 08:22:50;;;;;;;9.07;6.63;;;20.90;99.90;;;19.93;100.00;97365.38;5055532;28;20056;-74
2023/06/30 08:25:22;;;;;;;9.30;6.75;;;20.90;99.90;;;20.40;100.00;97359.66;5041342;28;20052;-74
2023/06/30 08:27:51;;;;;;;9.77;6.45;;;20.80;99.90;;;19.99;100.00;97350.84;5040243;28;20154;-74
2023/06/30 08:30:18;;;;;;;9.52;6.57;;;20.90;99.90;;;19.82;100.00;97355.75;5042620;28;20045;-73
2023/06/30 08:32:50;;;;;;;8.18;5.70;;;20.80;99.90;;;20.32;100.00;97352.44;5042970;28;20095;-74
2023/06/30 08:35:18;;;;;;;7.85;5.95;;;20.70;99.90;;;20.16;100.00;97349.41;5043456;28;20045;-74
2023/06/30 08:37:46;;;;;;;8.88;6.57;;;20.70;99.90;;;19.92;100.00;97345.28;5041329;28;20106;-74
2023/06/30 08:40:28;;;;;;;7.60;6.03;;;20.70;99.90;;;20.33;100.00;97348.81;5045487;28;20056;-74
2023/06/30 08:43:00;;;;;;;9.38;6.88;;;20.40;99.90;;;19.74;100.00;97346.81;5042710;28;20451;-74
2023/06/30 08:45:29;;;;;;;7.72;6.38;;;20.50;99.90;;;19.79;100.00;97353.34;5024674;28;20045;-74
2023/06/30 08:48:06;;;;;;;8.30;6.88;;;20.60;99.90;;;19.92;100.00;97354.97;5059258;28;20132;-74
2023/06/30 08:50:35;;;;;;;8.65;6.97;;;20.60;99.90;;;19.78;100.00;97346.44;5045468;28;20063;-74
2023/06/30 08:53:04;;;;;;;8.95;6.20;;;20.50;99.90;;;19.56;100.00;97354.41;5043727;28;20439;-74
2023/06/30 08:55:31;;;;;;;6.82;5.95;;;20.50;99.90;;;19.80;100.00;97349.78;5045802;28;20115;-75
2023/06/30 08:57:59;;;;;;;7.60;6.22;;;20.30;99.90;;;20.27;100.00;97347.56;5032615;28;20136;-75
2023/06/30 09:00:39;;;;;;;9.27;5.97;;;20.50;99.90;;;19.85;100.00;97362.56;5031085;28;20061;-75
2023/06/30 09:03:08;;;;;;;7.10;5.55;;;20.40;99.90;;;19.36;100.00;97363.94;5028864;28;20049;-74
2023/06/30 09:05:39;;;;;;;8.27;6.70;;;20.40;99.90;;;19.31;100.00;97363.50;5047339;28;20128;-74
2023/06/30 09:08:16;;;;;;;8.70;7.50;;;20.10;99.90;;;19.37;100.00;97365.63;5048040;28;20049;-75
2023/06/30 09:10:43;;;;;;;9.23;7.25;;;20.10;99.90;;;19.35;100.00;97368.38;5044339;28;20045;-75
2023/06/30 09:13:12;;;;;;;10.25;7.57;;;20.00;99.90;;;19.39;100.00;97368.97;5048453;28;20130;-75
2023/06/30 09:15:40;;;;;;;8.90;7.40;;;20.00;99.90;;;19.33;100.00;97364.19;5044356;28;20049;-74
2023/06/30 09:18:08;;;;;;;8.90;6.93;;;19.90;99.90;;;19.43;100.00;97358.06;5047417;28;20045;-75
2023/06/30 09:20:37;;;;;;;9.57;7.43;;;20.00;99.90;;;19.63;100.00;97355.56;5047175;28;20502;-74
2023/06/30 09:23:07;;;;;;;7.15;6.00;;;20.10;99.90;;;19.60;100.00;97358.47;5045321;28;20056;-74
2023/06/30 09:25:35;;;;;;;7.47;5.90;;;20.20;99.90;;;19.23;100.00;97361.50;5042844;28;20099;-74
2023/06/30 09:28:12;;;;;;;8.57;6.38;;;20.20;99.90;;;19.10;100.00;97366.91;5048101;28;20049;-74
2023/06/30 09:30:45;;;;;;;7.25;5.90;;;19.90;99.90;;;19.39;100.00;97371.59;5044616;28;20132;-73
2023/06/30 09:33:15;;;;;;;8.63;6.57;;;19.80;99.90;;;19.60;100.00;97367.19;5044721;28;20041;-75
2023/06/30 09:35:46;;;;;;;8.18;6.85;;;19.90;99.90;;;19.23;100.00;97366.75;5041735;28;20075;-74
2023/06/30 09:38:19;;;;;;;7.60;6.47;;;20.10;99.90;;;19.28;100.00;97369.00;5042121;28;20049;-75
2023/06/30 09:40:49;;;;;;;8.48;6.22;;;19.90;99.90;;;19.31;100.00;97361.69;5042323;28;20068;-74
2023/06/30 09:43:25;;;;;;;7.22;6.47;;;19.90;99.90;;;19.00;100.00;97372.06;5043722;28;20119;-74
2023/06/30 09:46:00;;;;;;;6.68;5.97;;;19.90;99.90;;;19.29;100.00;97368.03;5038765;28;20045;-75
2023/06/30 09:48:43;;;;;;;8.20;5.78;;;19.70;99.90;;;18.99;100.00;97365.13;5044366;28;20079;-73
2023/06/30 09:51:12;;;;;;;8.63;5.95;;;19.80;99.90;;;19.12;100.00;97366.78;5047578;28;20055;-73
2023/06/30 09:53:41;;;;;;;7.85;5.55;;;19.80;99.90;;;19.25;100.00;97367.47;5042744;28;20053;-75
2023/06/30 09:56:08;;;;;;;6.47;5.35;;;19.80;99.90;;;19.12;100.00;97367.63;5045467;28;20049;-74
2023/06/30 09:58:37;;;;;;;6.65;5.53;;;19.90;99.90;;;19.47;100.00;97363.91;5041595;28;20041;-73
2023/06/30 10:01:04;;;;;;;6.57;5.85;;;19.90;99.90;;;19.53;100.00;97370.47;5029719;28;20072;-75
2023/06/30 10:03:32;;;;;;;6.82;6.07;;;19.90;99.90;;;19.26;100.00;97365.66;5047350;28;20044;-74
2023/06/30 10:05:59;;;;;;;6.80;5.85;;;19.90;99.90;;;19.28;100.00;97363.75;5043557;28;20077;-74
2023/06/30 10:08:27;;;;;;;8.57;6.47;;;19.90;99.90;;;19.44;100.00;97378.16;5045211;28;20080;-75
2023/06/30 10:10:54;;;;;;;6.85;5.85;;;20.10;99.90;;;19.12;100.00;97383.41;5044066;28;20069;-73
2023/06/30 10:13:22;;;;;;;8.35;6.70;;;19.90;99.90;;;18.80;100.00;97384.16;5043248;28;20480;-73